createdAt,value
2022-10-31T00:01:26.846Z,63.51
2022-10-31T00:03:54.028Z,63.68
2022-10-31T00:06:22.516Z,63.41
2022-10-31T00:09:02.547Z,63.73
2022-10-31T00:11:30.219Z,63.70
2022-10-31T00:14:00.153Z,63.70
2022-10-31T00:16:27.535Z,63.92
2022-10-31T00:19:00.207Z,63.55
2022-10-31T00:21:27.799Z,63.33
2022-10-31T00:23:54.987Z,63.24
2022-10-31T00:26:22.271Z,63.17
2022-10-31T00:28:49.725Z,63.58
2022-10-31T00:31:17.045Z,63.70
2022-10-31T00:33:45.078Z,63.15
2022-10-31T00:36:15.174Z,63.44
2022-10-31T00:38:43.582Z,63.74
2022-10-31T00:41:12.305Z,63.65
2022-10-31T00:43:42.151Z,64.04
2022-10-31T00:46:10.339Z,63.99
2022-10-31T00:48:37.548Z,63.26
2022-10-31T00:51:05.860Z,63.35
2022-10-31T00:53:33.324Z,63.62
2022-10-31T00:56:00.632Z,63.72
2022-10-31T00:58:27.815Z,63.69
2022-10-31T01:00:58.412Z,63.63
2022-10-31T01:03:27.909Z,63.87
2022-10-31T01:06:03.277Z,64.06
2022-10-31T01:08:33.652Z,63.93
2022-10-31T01:11:24.181Z,64.09
2022-10-31T01:13:53.630Z,63.89
2022-10-31T01:16:23.488Z,63.90
2022-10-31T01:18:51.861Z,63.29
2022-10-31T01:21:25.204Z,62.72
2022-10-31T01:23:55.295Z,62.55
2022-10-31T01:26:25.225Z,62.43
2022-10-31T01:29:07.180Z,61.82
2022-10-31T01:31:38.728Z,61.54
2022-10-31T01:34:06.540Z,61.70
2022-10-31T01:36:38.885Z,62.11
2022-10-31T01:39:09.052Z,61.95
2022-10-31T01:41:39.631Z,61.95
2022-10-31T01:44:14.656Z,61.47
2022-10-31T01:46:44.733Z,60.47
2022-10-31T01:49:35.548Z,59.83
2022-10-31T01:52:11.060Z,59.18
2022-10-31T01:54:44.516Z,58.90
2022-10-31T01:57:15.874Z,58.85
2022-10-31T01:59:48.669Z,58.89
2022-10-31T02:02:17.364Z,59.09
2022-10-31T02:04:48.680Z,59.48
2022-10-31T02:07:28.884Z,59.63
2022-10-31T02:10:01.666Z,59.46
2022-10-31T02:12:31.370Z,59.04
2022-10-31T02:15:01.647Z,59.03
2022-10-31T02:17:31.165Z,58.75
2022-10-31T02:20:11.407Z,58.30
2022-10-31T02:22:55.339Z,58.24
2022-10-31T02:25:26.396Z,57.93
2022-10-31T02:28:29.124Z,57.45
2022-10-31T02:31:14.913Z,57.46
2022-10-31T02:33:56.125Z,57.00
2022-10-31T02:36:59.245Z,56.20
2022-10-31T02:39:31.196Z,56.02
2022-10-31T02:42:16.114Z,56.45
2022-10-31T02:44:52.770Z,57.22
2022-10-31T02:47:26.985Z,56.93
2022-10-31T02:50:19.131Z,56.09
2022-10-31T02:52:52.945Z,55.53
2022-10-31T02:55:26.060Z,55.14
2022-10-31T02:58:16.568Z,54.81
2022-10-31T03:01:34.301Z,54.60
2022-10-31T03:04:34.895Z,52.95
2022-10-31T03:07:17.334Z,51.26
2022-10-31T03:09:44.365Z,50.88
2022-10-31T03:12:19.647Z,50.80
2022-10-31T03:15:05.341Z,50.92
2022-10-31T03:17:39.502Z,50.96
2022-10-31T03:20:10.683Z,51.50
2022-10-31T03:22:42.948Z,51.91
2022-10-31T03:25:10.927Z,53.74
2022-10-31T03:27:40.621Z,54.38
2022-10-31T03:30:09.125Z,53.03
2022-10-31T03:32:55.610Z,52.00
2022-10-31T03:35:27.053Z,51.33
2022-10-31T03:37:55.519Z,51.15
2022-10-31T03:40:28.111Z,51.50
2022-10-31T03:43:04.888Z,51.60
2022-10-31T03:45:37.038Z,52.37
2022-10-31T03:48:05.024Z,52.61
2022-10-31T03:50:51.000Z,52.57
2022-10-31T03:53:27.891Z,52.83
2022-10-31T03:56:09.064Z,53.50
2022-10-31T03:58:43.683Z,53.08
2022-10-31T04:01:15.284Z,53.17
2022-10-31T04:03:43.916Z,53.20
2022-10-31T04:06:16.065Z,53.49
2022-10-31T04:08:49.280Z,52.60
2022-10-31T04:11:22.256Z,51.91
2022-10-31T04:14:08.273Z,51.03
2022-10-31T04:16:36.839Z,50.91
2022-10-31T04:19:04.282Z,50.54
2022-10-31T04:21:32.108Z,51.02
2022-10-31T04:23:59.349Z,51.15
2022-10-31T04:26:28.752Z,50.93
2022-10-31T04:28:59.691Z,50.43
2022-10-31T04:31:28.742Z,50.59
2022-10-31T04:33:56.159Z,50.21
2022-10-31T04:36:23.790Z,50.44
2022-10-31T04:38:50.841Z,50.78
2022-10-31T04:41:32.441Z,50.93
2022-10-31T04:44:02.611Z,51.03
2022-10-31T04:46:29.758Z,51.13
2022-10-31T04:48:58.387Z,51.08
2022-10-31T04:51:25.537Z,50.79
2022-10-31T04:53:53.101Z,51.13
2022-10-31T04:56:29.572Z,51.56
2022-10-31T04:58:59.964Z,51.93
2022-10-31T05:01:30.558Z,52.27
2022-10-31T05:03:59.892Z,52.09
2022-10-31T05:06:27.267Z,52.04
2022-10-31T05:08:55.092Z,52.20
2022-10-31T05:11:25.300Z,52.25
2022-10-31T05:13:56.005Z,52.60
2022-10-31T05:16:41.902Z,52.14
2022-10-31T05:19:37.899Z,51.68
2022-10-31T05:22:25.302Z,51.94
2022-10-31T05:24:52.481Z,52.23
2022-10-31T05:27:19.612Z,52.21
2022-10-31T05:29:46.772Z,50.75
2022-10-31T05:32:14.448Z,50.11
2022-10-31T05:35:00.155Z,48.95
2022-10-31T05:37:47.756Z,48.51
2022-10-31T05:40:17.191Z,48.24
2022-10-31T05:42:45.251Z,46.37
2022-10-31T05:45:16.473Z,45.06
2022-10-31T05:48:02.642Z,43.61
2022-10-31T05:51:05.580Z,41.90
2022-10-31T05:53:32.682Z,40.79
2022-10-31T05:56:00.089Z,40.16
2022-10-31T05:58:27.238Z,38.28
2022-10-31T06:01:06.962Z,38.16
2022-10-31T06:03:34.414Z,36.72
2022-10-31T06:06:04.399Z,35.89
2022-10-31T06:08:36.938Z,35.74
2022-10-31T06:11:07.700Z,34.71
2022-10-31T06:13:53.678Z,34.01
2022-10-31T06:16:25.222Z,33.73
2022-10-31T06:18:54.903Z,32.91
2022-10-31T06:21:22.684Z,32.13
2022-10-31T06:23:52.120Z,31.68
2022-10-31T06:26:37.671Z,32.92
2022-10-31T06:29:07.164Z,33.35
2022-10-31T06:31:56.425Z,34.65
2022-10-31T06:34:23.821Z,35.15
2022-10-31T06:36:50.955Z,36.14
2022-10-31T06:39:21.857Z,36.82
2022-10-31T06:41:49.587Z,37.23
2022-10-31T06:44:19.991Z,37.51
2022-10-31T06:46:56.690Z,37.76
2022-10-31T06:49:43.531Z,37.69
2022-10-31T06:52:16.408Z,38.10
2022-10-31T06:54:43.538Z,38.25
2022-10-31T06:57:10.636Z,38.34
2022-10-31T06:59:39.421Z,38.16
2022-10-31T07:02:12.729Z,38.34
2022-10-31T07:04:42.693Z,38.10
2022-10-31T07:07:13.325Z,38.36
2022-10-31T07:09:40.466Z,38.67
2022-10-31T07:12:10.037Z,39.99
2022-10-31T07:14:40.734Z,40.68
2022-10-31T07:17:07.966Z,40.52
2022-10-31T07:19:39.679Z,40.83
2022-10-31T07:22:06.951Z,41.25
2022-10-31T07:24:35.330Z,41.96
2022-10-31T07:27:21.239Z,42.69
2022-10-31T07:29:49.292Z,42.68
2022-10-31T07:32:17.532Z,43.63
2022-10-31T07:34:52.088Z,44.40
2022-10-31T07:37:24.307Z,45.50
2022-10-31T07:39:54.561Z,45.20
2022-10-31T07:42:21.739Z,45.08
2022-10-31T07:44:52.649Z,45.08
2022-10-31T07:47:50.916Z,45.10
2022-10-31T07:50:36.668Z,45.08
2022-10-31T07:53:22.141Z,44.87
2022-10-31T07:56:01.816Z,44.69
2022-10-31T07:58:30.700Z,44.39
2022-10-31T08:00:59.805Z,44.83
2022-10-31T08:03:35.124Z,45.29
2022-10-31T08:06:20.900Z,44.93
2022-10-31T08:09:11.540Z,44.44
2022-10-31T08:11:39.612Z,44.29
2022-10-31T08:14:07.544Z,44.22
2022-10-31T08:16:35.233Z,43.93
2022-10-31T08:19:04.882Z,43.46
2022-10-31T08:21:37.666Z,42.60
2022-10-31T08:24:06.252Z,42.23
2022-10-31T08:26:34.002Z,41.26
2022-10-31T08:29:01.564Z,40.39
2022-10-31T08:31:34.479Z,40.08
2022-10-31T08:34:41.888Z,39.43
2022-10-31T08:37:27.468Z,39.88
2022-10-31T08:39:56.163Z,42.68
2022-10-31T08:42:23.253Z,41.32
2022-10-31T08:44:50.559Z,39.84
2022-10-31T08:47:21.526Z,39.90
2022-10-31T08:49:48.915Z,39.14
2022-10-31T08:52:17.162Z,39.81
2022-10-31T08:54:47.185Z,39.33
2022-10-31T08:57:33.005Z,40.16
2022-10-31T09:00:03.265Z,39.37
2022-10-31T09:02:47.543Z,37.80
2022-10-31T09:05:15.233Z,37.77
2022-10-31T09:07:42.255Z,37.59
2022-10-31T09:10:09.594Z,38.01
2022-10-31T09:12:38.765Z,36.92
2022-10-31T09:15:07.642Z,36.44
2022-10-31T09:17:39.951Z,35.83
2022-10-31T09:20:22.857Z,35.09
2022-10-31T09:23:03.069Z,35.66
2022-10-31T09:25:32.115Z,35.35
2022-10-31T09:28:20.049Z,33.90
2022-10-31T09:30:49.494Z,33.71
2022-10-31T09:33:23.769Z,34.56
2022-10-31T09:36:08.697Z,36.22
2022-10-31T09:38:40.831Z,35.52
2022-10-31T09:41:26.507Z,34.11
2022-10-31T09:43:53.768Z,34.09
2022-10-31T09:46:49.668Z,35.16
2022-10-31T09:49:34.285Z,35.58
2022-10-31T09:52:18.435Z,35.30
2022-10-31T09:54:55.068Z,35.32
2022-10-31T09:57:32.192Z,36.65
2022-10-31T10:00:00.652Z,38.94
2022-10-31T10:02:44.439Z,39.36
2022-10-31T10:05:16.187Z,36.46
2022-10-31T10:08:04.730Z,36.38
2022-10-31T10:11:01.094Z,37.75
2022-10-31T10:14:36.346Z,39.43
2022-10-31T10:17:03.414Z,39.90
2022-10-31T10:19:33.582Z,43.40
2022-10-31T10:22:13.449Z,40.35
2022-10-31T10:25:10.989Z,42.16
2022-10-31T10:27:38.629Z,41.41
2022-10-31T10:30:20.462Z,43.93
2022-10-31T10:33:00.676Z,43.76
2022-10-31T10:35:35.100Z,44.74
2022-10-31T10:38:11.038Z,46.52
2022-10-31T10:40:39.438Z,46.24
2022-10-31T10:43:24.964Z,46.94
2022-10-31T10:46:28.345Z,47.21
2022-10-31T10:49:08.360Z,47.69
2022-10-31T10:52:13.320Z,48.14
2022-10-31T10:54:48.046Z,47.40
2022-10-31T10:57:35.920Z,45.03
2022-10-31T11:00:23.906Z,45.58
2022-10-31T11:02:52.362Z,43.72
2022-10-31T11:05:38.500Z,43.61
2022-10-31T11:08:07.289Z,43.83
2022-10-31T11:10:35.161Z,42.79
2022-10-31T11:13:11.709Z,40.74
2022-10-31T11:15:52.655Z,41.03
2022-10-31T11:21:01.880Z,42.15
2022-10-31T11:23:30.358Z,43.14
2022-10-31T11:26:04.961Z,43.50
2022-10-31T11:28:36.047Z,42.53
2022-10-31T11:31:14.711Z,44.14
2022-10-31T11:33:49.406Z,43.87
2022-10-31T11:36:24.555Z,43.78
2022-10-31T11:38:53.014Z,44.66
2022-10-31T11:41:27.966Z,44.81
2022-10-31T11:43:57.688Z,44.45
2022-10-31T11:46:39.608Z,44.71
2022-10-31T11:49:19.112Z,45.13
2022-10-31T11:51:54.379Z,45.17
2022-10-31T11:54:48.881Z,45.32
2022-10-31T11:57:30.931Z,47.21
2022-10-31T12:00:03.132Z,47.66
2022-10-31T12:02:39.674Z,47.73
2022-10-31T12:05:34.254Z,48.42
2022-10-31T12:08:04.507Z,49.97
2022-10-31T12:10:50.334Z,50.25
2022-10-31T12:13:20.935Z,50.23
2022-10-31T12:15:57.498Z,49.91
2022-10-31T12:18:49.725Z,49.55
2022-10-31T12:21:35.293Z,50.06
2022-10-31T12:24:24.254Z,50.66
2022-10-31T12:27:22.463Z,51.56
2022-10-31T12:30:22.303Z,51.58
2022-10-31T12:33:10.179Z,52.28
2022-10-31T12:38:18.087Z,53.54
2022-10-31T12:41:00.528Z,53.17
2022-10-31T12:44:06.042Z,52.51
2022-10-31T12:46:42.382Z,54.27
2022-10-31T12:49:46.676Z,53.96
2022-10-31T12:52:44.823Z,53.78
2022-10-31T12:55:47.387Z,54.00
2022-10-31T12:58:14.730Z,53.95
2022-10-31T13:00:47.496Z,55.13
2022-10-31T13:03:30.152Z,54.85
2022-10-31T13:06:03.767Z,55.09
2022-10-31T13:08:47.095Z,55.98
2022-10-31T13:11:17.278Z,55.91
2022-10-31T13:13:47.118Z,55.72
2022-10-31T13:16:14.272Z,56.62
2022-10-31T13:18:47.884Z,55.40
2022-10-31T13:21:50.321Z,55.99
2022-10-31T13:24:28.340Z,57.46
2022-10-31T13:26:59.817Z,57.57
2022-10-31T13:29:38.169Z,56.37
2022-10-31T13:32:07.004Z,57.16
2022-10-31T13:34:41.541Z,57.04
2022-10-31T13:37:36.903Z,57.13
2022-10-31T13:40:08.990Z,57.46
2022-10-31T13:42:37.093Z,56.68
2022-10-31T13:45:16.209Z,56.65
2022-10-31T13:47:44.515Z,56.43
2022-10-31T13:50:22.780Z,56.95
2022-10-31T13:52:50.024Z,57.16
2022-10-31T13:55:45.454Z,58.30
2022-10-31T13:58:23.881Z,57.50
2022-10-31T14:01:06.359Z,56.53
2022-10-31T14:04:04.640Z,56.50
2022-10-31T14:06:26.317Z,55.69
2022-10-31T14:08:53.861Z,56.39
2022-10-31T14:11:33.012Z,56.68
2022-10-31T14:14:03.635Z,54.80
2022-10-31T14:16:33.149Z,55.79
2022-10-31T14:19:02.772Z,54.43
2022-10-31T14:21:32.563Z,56.61
2022-10-31T14:23:59.662Z,57.49
2022-10-31T14:26:29.887Z,59.23
2022-10-31T14:29:04.519Z,58.05
2022-10-31T14:31:44.651Z,56.60
2022-10-31T14:34:36.713Z,57.00
2022-10-31T14:37:54.973Z,57.08
2022-10-31T14:41:13.317Z,57.58
2022-10-31T14:43:48.012Z,59.34
2022-10-31T14:46:44.315Z,59.47
2022-10-31T14:49:20.265Z,60.64
2022-10-31T14:51:49.911Z,60.95
2022-10-31T14:54:24.620Z,61.34
2022-10-31T14:56:56.533Z,60.50
2022-10-31T14:59:34.476Z,61.06
2022-10-31T15:02:22.495Z,60.96
2022-10-31T15:04:52.428Z,59.70
2022-10-31T15:07:27.660Z,58.42
2022-10-31T15:10:28.479Z,57.18
2022-10-31T15:12:55.850Z,57.25
2022-10-31T15:15:30.031Z,57.60
2022-10-31T15:18:00.735Z,58.54
2022-10-31T15:20:31.731Z,58.49
2022-10-31T15:23:01.024Z,58.67
2022-10-31T15:25:34.055Z,58.63
2022-10-31T15:28:01.634Z,58.84
2022-10-31T15:30:30.962Z,58.58
2022-10-31T15:32:59.370Z,58.49
2022-10-31T15:35:32.000Z,59.25
2022-10-31T15:38:01.793Z,59.33
2022-10-31T15:40:29.666Z,59.90
2022-10-31T15:43:03.253Z,60.16
2022-10-31T15:45:31.726Z,60.35
2022-10-31T15:48:02.619Z,60.59
2022-10-31T15:50:39.098Z,60.57
2022-10-31T15:53:18.630Z,60.55
2022-10-31T15:55:58.907Z,61.12
2022-10-31T15:58:27.265Z,61.23
2022-10-31T16:01:07.153Z,61.07
2022-10-31T16:03:35.777Z,60.90
2022-10-31T16:06:06.375Z,60.90
2022-10-31T16:08:37.147Z,61.12
2022-10-31T16:11:15.974Z,60.55
2022-10-31T16:13:59.833Z,60.91
2022-10-31T16:16:35.261Z,61.03
2022-10-31T16:19:05.594Z,61.19
2022-10-31T16:21:37.452Z,61.28
2022-10-31T16:24:15.078Z,61.17
2022-10-31T16:26:42.829Z,61.18
2022-10-31T16:29:42.671Z,60.98
2022-10-31T16:32:26.124Z,61.66
2022-10-31T16:35:11.213Z,61.46
2022-10-31T16:37:42.269Z,61.45
2022-10-31T16:40:17.087Z,61.32
2022-10-31T16:42:46.028Z,61.74
2022-10-31T16:45:24.723Z,61.84
2022-10-31T16:47:52.770Z,62.40
2022-10-31T16:50:23.854Z,62.34
2022-10-31T16:53:08.771Z,62.66
2022-10-31T16:55:47.419Z,62.57
2022-10-31T16:58:24.303Z,62.72
2022-10-31T17:00:52.807Z,63.00
2022-10-31T17:03:20.768Z,62.73
2022-10-31T17:05:48.037Z,63.22
2022-10-31T17:08:15.351Z,63.49
2022-10-31T17:10:44.963Z,63.47
2022-10-31T17:13:18.040Z,63.59
2022-10-31T17:15:48.496Z,63.88
2022-10-31T17:18:16.971Z,64.07
2022-10-31T17:20:45.182Z,64.03
2022-10-31T17:23:14.532Z,64.27
2022-10-31T17:25:42.130Z,64.22
2022-10-31T17:28:13.874Z,63.93
2022-10-31T17:30:42.579Z,63.89
2022-10-31T17:33:13.059Z,63.90
2022-10-31T17:35:40.436Z,64.21
2022-10-31T17:38:07.623Z,64.20
2022-10-31T17:40:34.841Z,63.89
2022-10-31T17:43:03.982Z,63.51
2022-10-31T17:45:32.758Z,63.56
2022-10-31T17:48:00.179Z,63.72
2022-10-31T17:50:27.811Z,64.04
2022-10-31T17:52:54.871Z,63.95
2022-10-31T17:55:22.046Z,64.09
2022-10-31T17:57:49.355Z,64.14
2022-10-31T18:00:22.781Z,63.97
2022-10-31T18:02:50.411Z,64.87
2022-10-31T18:05:18.002Z,65.01
2022-10-31T18:07:45.707Z,65.01
2022-10-31T18:10:12.831Z,64.73
2022-10-31T18:12:44.130Z,65.09
2022-10-31T18:15:15.053Z,65.12
2022-10-31T18:17:44.097Z,64.89
2022-10-31T18:20:12.885Z,65.23
2022-10-31T18:22:40.063Z,64.91
2022-10-31T18:25:08.845Z,64.57
2022-10-31T18:27:36.885Z,64.40
2022-10-31T18:30:04.428Z,63.88
2022-10-31T18:32:31.542Z,63.61
2022-10-31T18:34:58.528Z,63.64
2022-10-31T18:37:25.644Z,63.50
2022-10-31T18:39:52.636Z,63.49
2022-10-31T18:42:19.815Z,63.06
2022-10-31T18:44:46.844Z,63.07
2022-10-31T18:47:13.988Z,62.74
2022-10-31T18:49:43.591Z,62.34
2022-10-31T18:52:11.836Z,62.06
2022-10-31T18:54:38.967Z,61.96
2022-10-31T18:57:08.856Z,61.54
2022-10-31T18:59:38.416Z,60.98
2022-10-31T19:02:05.834Z,60.77
2022-10-31T19:04:33.118Z,61.18
2022-10-31T19:07:00.818Z,60.97
2022-10-31T19:09:30.959Z,61.11
2022-10-31T19:11:58.038Z,60.81
2022-10-31T19:14:25.167Z,61.08
2022-10-31T19:16:53.013Z,60.48
2022-10-31T19:19:21.159Z,60.26
2022-10-31T19:21:48.418Z,59.35
2022-10-31T19:24:15.941Z,58.36
2022-10-31T19:26:43.206Z,57.03
2022-10-31T19:29:10.823Z,56.34
2022-10-31T19:31:37.929Z,55.51
2022-10-31T19:34:05.303Z,55.17
2022-10-31T19:36:32.663Z,55.46
2022-10-31T19:39:00.060Z,55.23
2022-10-31T19:41:31.928Z,54.79
2022-10-31T19:44:00.481Z,55.00
2022-10-31T19:46:51.707Z,54.80
2022-10-31T19:49:15.581Z,55.27
2022-10-31T19:51:45.679Z,55.75
2022-10-31T19:54:15.016Z,55.97
2022-10-31T19:56:42.252Z,56.12
2022-10-31T19:59:09.555Z,58.86
2022-10-31T20:01:36.945Z,59.45
2022-10-31T20:04:04.236Z,55.59
2022-10-31T20:06:36.794Z,53.86
2022-10-31T20:09:08.118Z,54.31
2022-10-31T20:11:37.323Z,54.68
2022-10-31T20:14:04.882Z,54.83
2022-10-31T20:16:32.820Z,54.87
2022-10-31T20:19:00.265Z,54.64
2022-10-31T20:21:29.358Z,54.78
2022-10-31T20:24:01.596Z,54.60
2022-10-31T20:26:30.382Z,54.80
2022-10-31T20:28:58.583Z,55.04
2022-10-31T20:31:30.222Z,54.86
2022-10-31T20:33:57.680Z,55.01
2022-10-31T20:36:25.507Z,55.16
2022-10-31T20:38:52.920Z,54.85
2022-10-31T20:41:20.202Z,54.77
2022-10-31T20:43:47.983Z,54.67
2022-10-31T20:46:17.489Z,55.06
2022-10-31T20:48:48.728Z,54.15
2022-10-31T20:51:27.681Z,54.38
2022-10-31T20:53:56.828Z,54.15
2022-10-31T20:56:26.038Z,53.65
2022-10-31T20:58:55.491Z,53.71
2022-10-31T21:01:31.334Z,54.17
2022-10-31T21:03:59.198Z,54.13
2022-10-31T21:06:27.327Z,54.38
2022-10-31T21:08:55.209Z,54.89
2022-10-31T21:11:24.765Z,55.25
2022-10-31T21:13:52.614Z,56.17
2022-10-31T21:16:25.427Z,56.27
2022-10-31T21:18:53.875Z,56.27
2022-10-31T21:21:29.124Z,56.62
2022-10-31T21:24:12.453Z,56.95
2022-10-31T21:26:42.835Z,57.20
2022-10-31T21:29:11.894Z,57.40
2022-10-31T21:31:39.747Z,58.15
2022-10-31T21:34:07.097Z,58.87
2022-10-31T21:36:35.023Z,58.93
2022-10-31T21:39:03.154Z,60.39
2022-10-31T21:41:30.285Z,60.35
2022-10-31T21:43:57.762Z,61.89
2022-10-31T21:46:30.643Z,63.17
2022-10-31T21:48:58.584Z,64.00
2022-10-31T21:51:33.442Z,64.63
2022-10-31T21:54:19.342Z,65.19
2022-10-31T21:56:46.518Z,64.98
2022-10-31T21:59:13.932Z,65.22
2022-10-31T22:01:41.546Z,65.38
2022-10-31T22:04:09.008Z,65.57
2022-10-31T22:06:36.652Z,65.43
2022-10-31T22:09:06.205Z,65.80
2022-10-31T22:11:34.551Z,66.15
2022-10-31T22:14:02.209Z,66.66
2022-10-31T22:16:30.873Z,66.32
2022-10-31T22:18:59.580Z,66.38
2022-10-31T22:21:28.494Z,66.52
2022-10-31T22:24:01.913Z,67.01
2022-10-31T22:26:32.930Z,67.02
2022-10-31T22:29:03.291Z,66.94
2022-10-31T22:31:31.943Z,67.33
2022-10-31T22:33:59.763Z,67.12
2022-10-31T22:36:29.322Z,67.78
2022-10-31T22:38:57.298Z,67.56
2022-10-31T22:41:29.740Z,67.49
2022-10-31T22:43:57.804Z,67.76
2022-10-31T22:46:30.048Z,67.75
2022-10-31T22:49:03.055Z,68.20
2022-10-31T22:51:33.211Z,68.35
2022-10-31T22:54:00.635Z,68.49
2022-10-31T22:56:30.477Z,68.33
2022-10-31T22:58:58.988Z,68.24
2022-10-31T23:01:32.276Z,68.23
2022-10-31T23:04:00.553Z,68.61
2022-10-31T23:06:32.807Z,68.48
2022-10-31T23:09:01.724Z,68.81
2022-10-31T23:11:37.467Z,68.65
2022-10-31T23:14:16.536Z,69.09
2022-10-31T23:16:46.821Z,68.88
2022-10-31T23:19:22.166Z,68.83
2022-10-31T23:21:56.674Z,69.16
2022-10-31T23:24:32.119Z,69.13
2022-10-31T23:27:09.940Z,69.30
2022-10-31T23:29:54.485Z,69.53
2022-10-31T23:32:30.890Z,69.37
2022-10-31T23:35:03.175Z,69.10
2022-10-31T23:37:32.183Z,69.03
2022-10-31T23:39:59.838Z,69.12
2022-10-31T23:42:27.984Z,68.70
2022-10-31T23:44:55.481Z,68.80
2022-10-31T23:47:22.825Z,68.98
2022-10-31T23:49:51.027Z,68.78
2022-10-31T23:52:18.462Z,68.84
2022-10-31T23:54:45.604Z,68.92
2022-10-31T23:57:13.960Z,68.66
2022-10-31T23:59:41.167Z,68.79
